sensor_id;sensor_type;location;lat;lon;timestamp;pressure;altitude;pressure_sealevel;temperature;humidity
79230;BME280;68663;49.122;17.544;2023-05-06T00:00:40;99398.69;;;23.29;45.18
79230;BME280;68663;49.122;17.544;2023-05-06T00:03:07;99397.38;;;23.37;44.84
79230;BME280;68663;49.122;17.544;2023-05-06T00:05:34;99394.47;;;23.44;44.64
79230;BME280;68663;49.122;17.544;2023-05-06T00:07:59;99383.22;;;23.40;44.82
79230;BME280;68663;49.122;17.544;2023-05-06T00:10:25;99385.25;;;23.40;44.83
79230;BME280;68663;49.122;17.544;2023-05-06T00:12:51;99379.59;;;23.40;44.76
79230;BME280;68663;49.122;17.544;2023-05-06T00:15:16;99384.06;;;23.37;44.86
79230;BME280;68663;49.122;17.544;2023-05-06T00:17:42;99385.72;;;23.35;44.82
79230;BME280;68663;49.122;17.544;2023-05-06T00:20:08;99383.38;;;23.30;44.93
79230;BME280;68663;49.122;17.544;2023-05-06T00:22:34;99378.19;;;23.25;45.19
79230;BME280;68663;49.122;17.544;2023-05-06T00:25:00;99376.94;;;23.29;44.99
79230;BME280;68663;49.122;17.544;2023-05-06T00:27:25;99373.56;;;23.38;44.79
79230;BME280;68663;49.122;17.544;2023-05-06T00:29:51;99371.97;;;23.37;44.81
79230;BME280;68663;49.122;17.544;2023-05-06T00:32:16;99372.78;;;23.37;44.93
79230;BME280;68663;49.122;17.544;2023-05-06T00:34:42;99377.63;;;23.37;44.71
79230;BME280;68663;49.122;17.544;2023-05-06T00:37:07;99366.38;;;23.33;44.74
79230;BME280;68663;49.122;17.544;2023-05-06T00:39:32;99377.69;;;23.33;44.89
79230;BME280;68663;49.122;17.544;2023-05-06T00:41:59;99359.19;;;23.29;45.02
79230;BME280;68663;49.122;17.544;2023-05-06T00:44:26;99369.25;;;23.30;44.99
79230;BME280;68663;49.122;17.544;2023-05-06T00:46:52;99359.47;;;23.38;44.68
79230;BME280;68663;49.122;17.544;2023-05-06T00:49:18;99363.94;;;23.35;44.77
79230;BME280;68663;49.122;17.544;2023-05-06T00:51:43;99360.69;;;23.37;44.75
79230;BME280;68663;49.122;17.544;2023-05-06T00:54:09;99364.75;;;23.36;44.62
79230;BME280;68663;49.122;17.544;2023-05-06T00:56:36;99366.75;;;23.35;44.59
79230;BME280;68663;49.122;17.544;2023-05-06T00:59:01;99364.00;;;23.32;44.73
79230;BME280;68663;49.122;17.544;2023-05-06T01:01:29;99372.09;;;23.30;44.76
79230;BME280;68663;49.122;17.544;2023-05-06T01:03:55;99363.28;;;23.24;44.93
79230;BME280;68663;49.122;17.544;2023-05-06T01:08:59;99338.97;;;23.34;44.69
79230;BME280;68663;49.122;17.544;2023-05-06T01:11:36;99338.97;;;23.34;44.81
79230;BME280;68663;49.122;17.544;2023-05-06T01:14:12;99338.59;;;23.32;44.80
79230;BME280;68663;49.122;17.544;2023-05-06T01:16:40;99342.28;;;23.29;44.90
79230;BME280;68663;49.122;17.544;2023-05-06T01:19:13;99338.34;;;23.23;44.88
79230;BME280;68663;49.122;17.544;2023-05-06T01:21:44;99336.75;;;23.22;44.95
79230;BME280;68663;49.122;17.544;2023-05-06T01:24:10;99339.81;;;23.31;44.98
79230;BME280;68663;49.122;17.544;2023-05-06T01:26:35;99349.88;;;23.32;44.95
79230;BME280;68663;49.122;17.544;2023-05-06T01:29:01;99346.69;;;23.30;44.73
79230;BME280;68663;49.122;17.544;2023-05-06T01:31:37;99355.94;;;23.30;44.85
79230;BME280;68663;49.122;17.544;2023-05-06T01:34:25;99350.78;;;23.25;44.95
79230;BME280;68663;49.122;17.544;2023-05-06T01:37:08;99352.06;;;23.20;44.96
79230;BME280;68663;49.122;17.544;2023-05-06T01:39:37;99347.97;;;23.25;44.92
79230;BME280;68663;49.122;17.544;2023-05-06T01:42:08;99349.47;;;23.33;44.60
79230;BME280;68663;49.122;17.544;2023-05-06T01:44:35;99343.44;;;23.31;44.68
79230;BME280;68663;49.122;17.544;2023-05-06T01:47:02;99346.28;;;23.31;44.64
79230;BME280;68663;49.122;17.544;2023-05-06T01:49:29;99348.72;;;23.29;44.71
79230;BME280;68663;49.122;17.544;2023-05-06T01:51:55;99337.91;;;23.24;44.82
79230;BME280;68663;49.122;17.544;2023-05-06T01:54:20;99336.78;;;23.18;45.08
79230;BME280;68663;49.122;17.544;2023-05-06T01:56:46;99336.78;;;23.18;44.89
79230;BME280;68663;49.122;17.544;2023-05-06T01:59:11;99339.44;;;23.29;44.73
79230;BME280;68663;49.122;17.544;2023-05-06T02:01:40;99337.44;;;23.29;44.74
79230;BME280;68663;49.122;17.544;2023-05-06T02:04:05;99330.63;;;23.27;44.92
79230;BME280;68663;49.122;17.544;2023-05-06T02:06:31;99341.09;;;23.26;44.87
79230;BME280;68663;49.122;17.544;2023-05-06T02:08:56;99339.94;;;23.24;44.97
79230;BME280;68663;49.122;17.544;2023-05-06T02:11:22;99337.53;;;23.22;44.87
79230;BME280;68663;49.122;17.544;2023-05-06T02:13:47;99340.41;;;23.18;45.00
79230;BME280;68663;49.122;17.544;2023-05-06T02:16:12;99344.44;;;23.17;45.09
79230;BME280;68663;49.122;17.544;2023-05-06T02:18:38;99346.38;;;23.24;45.01
79230;BME280;68663;49.122;17.544;2023-05-06T02:21:03;99347.91;;;23.29;44.78
79230;BME280;68663;49.122;17.544;2023-05-06T02:23:29;99347.13;;;23.28;44.71
79230;BME280;68663;49.122;17.544;2023-05-06T02:25:54;99347.91;;;23.29;44.66
79230;BME280;68663;49.122;17.544;2023-05-06T02:28:22;99348.75;;;23.26;44.76
79230;BME280;68663;49.122;17.544;2023-05-06T02:30:47;99343.50;;;23.28;44.84
79230;BME280;68663;49.122;17.544;2023-05-06T02:33:13;99336.38;;;23.19;44.79
79230;BME280;68663;49.122;17.544;2023-05-06T02:35:38;99341.63;;;23.17;44.91
79230;BME280;68663;49.122;17.544;2023-05-06T02:38:03;99337.63;;;23.15;44.96
79230;BME280;68663;49.122;17.544;2023-05-06T02:40:29;99334.72;;;23.22;44.84
79230;BME280;68663;49.122;17.544;2023-05-06T02:42:54;99340.69;;;23.28;44.82
79230;BME280;68663;49.122;17.544;2023-05-06T02:45:20;99331.84;;;23.26;44.77
79230;BME280;68663;49.122;17.544;2023-05-06T02:47:45;99330.25;;;23.25;44.73
79230;BME280;68663;49.122;17.544;2023-05-06T02:50:11;99325.09;;;23.19;44.97
79230;BME280;68663;49.122;17.544;2023-05-06T02:52:36;99328.75;;;23.16;44.87
79230;BME280;68663;49.122;17.544;2023-05-06T02:55:04;99310.97;;;23.19;44.85
79230;BME280;68663;49.122;17.544;2023-05-06T02:57:29;99312.03;;;23.29;44.64
79230;BME280;68663;49.122;17.544;2023-05-06T02:59:55;99299.59;;;23.27;44.80
79230;BME280;68663;49.122;17.544;2023-05-06T03:02:20;99300.00;;;23.25;44.71
79230;BME280;68663;49.122;17.544;2023-05-06T03:04:46;99295.59;;;23.24;44.92
79230;BME280;68663;49.122;17.544;2023-05-06T03:07:11;99296.88;;;23.19;44.93
79230;BME280;68663;49.122;17.544;2023-05-06T03:09:37;99293.69;;;23.17;44.94
79230;BME280;68663;49.122;17.544;2023-05-06T03:12:03;99297.25;;;23.22;44.70
79230;BME280;68663;49.122;17.544;2023-05-06T03:14:29;99290.28;;;23.30;44.66
79230;BME280;68663;49.122;17.544;2023-05-06T03:16:54;99297.13;;;23.29;44.70
79230;BME280;68663;49.122;17.544;2023-05-06T03:19:20;99293.94;;;23.27;44.60
79230;BME280;68663;49.122;17.544;2023-05-06T03:21:45;99290.75;;;23.25;44.77
79230;BME280;68663;49.122;17.544;2023-05-06T03:24:11;99293.19;;;23.23;44.72
79230;BME280;68663;49.122;17.544;2023-05-06T03:26:36;99289.63;;;23.18;44.84
79230;BME280;68663;49.122;17.544;2023-05-06T03:29:02;99284.38;;;23.20;44.81
79230;BME280;68663;49.122;17.544;2023-05-06T03:31:27;99280.28;;;23.25;44.69
79230;BME280;68663;49.122;17.544;2023-05-06T03:33:53;99290.38;;;23.23;44.76
79230;BME280;68663;49.122;17.544;2023-05-06T03:36:18;99293.56;;;23.25;44.76
79230;BME280;68663;49.122;17.544;2023-05-06T03:38:44;99293.19;;;23.23;44.75
79230;BME280;68663;49.122;17.544;2023-05-06T03:41:09;99301.72;;;23.19;44.88
79230;BME280;68663;49.122;17.544;2023-05-06T03:43:34;99305.75;;;23.18;44.79
79230;BME280;68663;49.122;17.544;2023-05-06T03:46:00;99308.63;;;23.14;45.09
79230;BME280;68663;49.122;17.544;2023-05-06T03:48:25;99307.78;;;23.17;44.84
79230;BME280;68663;49.122;17.544;2023-05-06T03:50:51;99300.00;;;23.25;44.82
79230;BME280;68663;49.122;17.544;2023-05-06T03:53:16;99286.72;;;23.26;44.94
79230;BME280;68663;49.122;17.544;2023-05-06T03:55:42;99282.28;;;23.25;45.04
79230;BME280;68663;49.122;17.544;2023-05-06T03:58:07;99290.75;;;23.25;44.70
79230;BME280;68663;49.122;17.544;2023-05-06T04:00:33;99283.56;;;23.20;44.76
79230;BME280;68663;49.122;17.544;2023-05-06T04:02:58;99277.13;;;23.19;44.84
79230;BME280;68663;49.122;17.544;2023-05-06T04:05:24;99279.59;;;23.17;45.04
79230;BME280;68663;49.122;17.544;2023-05-06T04:07:49;99278.34;;;23.18;44.85
79230;BME280;68663;49.122;17.544;2023-05-06T04:10:15;99276.59;;;23.28;44.69
79230;BME280;68663;49.122;17.544;2023-05-06T04:12:40;99271.31;;;23.30;44.90
79230;BME280;68663;49.122;17.544;2023-05-06T04:15:06;99268.56;;;23.27;44.59
79230;BME280;68663;49.122;17.544;2023-05-06T04:17:31;99274.63;;;23.25;44.74
79230;BME280;68663;49.122;17.544;2023-05-06T04:19:57;99273.09;;;23.20;44.74
79230;BME280;68663;49.122;17.544;2023-05-06T04:22:22;99271.53;;;23.16;45.00
79230;BME280;68663;49.122;17.544;2023-05-06T04:24:48;99263.81;;;23.20;44.90
79230;BME280;68663;49.122;17.544;2023-05-06T04:27:13;99257.28;;;23.27;44.67
79230;BME280;68663;49.122;17.544;2023-05-06T04:29:39;99246.41;;;23.25;44.57
79230;BME280;68663;49.122;17.544;2023-05-06T04:32:04;99239.97;;;23.25;44.92
79230;BME280;68663;49.122;17.544;2023-05-06T04:34:30;99256.09;;;23.24;44.72
79230;BME280;68663;49.122;17.544;2023-05-06T04:36:56;99253.34;;;23.20;44.90
79230;BME280;68663;49.122;17.544;2023-05-06T04:39:23;99270.63;;;23.23;44.79
79230;BME280;68663;49.122;17.544;2023-05-06T04:41:49;99274.69;;;23.22;44.66
79230;BME280;68663;49.122;17.544;2023-05-06T04:44:14;99285.22;;;23.17;45.01
79230;BME280;68663;49.122;17.544;2023-05-06T04:46:40;99283.56;;;23.20;44.82
79230;BME280;68663;49.122;17.544;2023-05-06T04:49:06;99297.94;;;23.29;44.95
79230;BME280;68663;49.122;17.544;2023-05-06T04:51:31;99294.75;;;23.27;45.07
79230;BME280;68663;49.122;17.544;2023-05-06T04:53:57;99293.94;;;23.27;44.99
79230;BME280;68663;49.122;17.544;2023-05-06T04:56:22;99301.63;;;23.26;45.07
79230;BME280;68663;49.122;17.544;2023-05-06T04:58:48;99300.81;;;23.26;45.20
79230;BME280;68663;49.122;17.544;2023-05-06T05:01:13;99295.59;;;23.24;45.17
79230;BME280;68663;49.122;17.544;2023-05-06T05:03:39;99291.22;;;23.19;45.33
79230;BME280;68663;49.122;17.544;2023-05-06T05:06:04;99302.16;;;23.17;45.43
79230;BME280;68663;49.122;17.544;2023-05-06T05:08:30;99308.91;;;23.24;45.54
79230;BME280;68663;49.122;17.544;2023-05-06T05:10:55;99301.56;;;23.30;45.48
79230;BME280;68663;49.122;17.544;2023-05-06T05:13:21;99309.22;;;23.29;45.40
79230;BME280;68663;49.122;17.544;2023-05-06T05:15:46;99293.53;;;23.28;45.48
79230;BME280;68663;49.122;17.544;2023-05-06T05:18:12;99296.72;;;23.30;45.65
79230;BME280;68663;49.122;17.544;2023-05-06T05:20:37;99295.50;;;23.31;45.91
79230;BME280;68663;49.122;17.544;2023-05-06T05:23:03;99295.66;;;23.47;47.03
79230;BME280;68663;49.122;17.544;2023-05-06T05:25:28;99301.16;;;23.58;46.74
79230;BME280;68663;49.122;17.544;2023-05-06T05:27:54;99299.75;;;23.70;46.50
79230;BME280;68663;49.122;17.544;2023-05-06T05:30:19;99294.22;;;23.63;46.50
79230;BME280;68663;49.122;17.544;2023-05-06T05:32:45;99294.28;;;23.59;46.82
79230;BME280;68663;49.122;17.544;2023-05-06T05:35:10;99297.91;;;23.60;46.84
79230;BME280;68663;49.122;17.544;2023-05-06T05:37:36;99297.50;;;23.61;46.71
79230;BME280;68663;49.122;17.544;2023-05-06T05:40:01;99294.66;;;23.61;46.77
79230;BME280;68663;49.122;17.544;2023-05-06T05:42:27;99289.75;;;23.65;46.77
79230;BME280;68663;49.122;17.544;2023-05-06T05:44:55;99296.50;;;23.71;46.82
79230;BME280;68663;49.122;17.544;2023-05-06T05:47:20;99294.06;;;23.73;46.72
79230;BME280;68663;49.122;17.544;2023-05-06T05:49:45;99293.63;;;23.75;46.72
79230;BME280;68663;49.122;17.544;2023-05-06T05:52:11;99294.41;;;23.75;46.63
79230;BME280;68663;49.122;17.544;2023-05-06T05:54:36;99292.47;;;23.72;46.89
79230;BME280;68663;49.122;17.544;2023-05-06T05:57:02;99292.41;;;23.76;46.79
79230;BME280;68663;49.122;17.544;2023-05-06T05:59:28;99287.19;;;23.74;46.71
79230;BME280;68663;49.122;17.544;2023-05-06T06:01:53;99282.28;;;23.78;46.58
79230;BME280;68663;49.122;17.544;2023-05-06T06:04:19;99281.91;;;23.76;46.68
79230;BME280;68663;49.122;17.544;2023-05-06T06:06:45;99272.13;;;23.81;46.53
79230;BME280;68663;49.122;17.544;2023-05-06T06:09:10;99282.50;;;23.88;46.38
79230;BME280;68663;49.122;17.544;2023-05-06T06:11:36;99282.56;;;23.84;46.55
79230;BME280;68663;49.122;17.544;2023-05-06T06:14:01;99285.28;;;23.91;46.18
79230;BME280;68663;49.122;17.544;2023-05-06T06:16:27;99271.09;;;23.95;45.94
79230;BME280;68663;49.122;17.544;2023-05-06T06:18:52;99267.47;;;23.94;45.97
79230;BME280;68663;49.122;17.544;2023-05-06T06:21:18;99276.97;;;24.04;45.76
79230;BME280;68663;49.122;17.544;2023-05-06T06:23:43;99279.06;;;24.00;45.87
79230;BME280;68663;49.122;17.544;2023-05-06T06:26:09;99275.44;;;23.99;45.98
79230;BME280;68663;49.122;17.544;2023-05-06T06:28:34;99274.94;;;24.04;45.73
79230;BME280;68663;49.122;17.544;2023-05-06T06:30:59;99266.75;;;24.10;45.32
79230;BME280;68663;49.122;17.544;2023-05-06T06:33:26;99272.34;;;24.13;45.32
79230;BME280;68663;49.122;17.544;2023-05-06T06:35:52;99272.28;;;24.17;45.05
79230;BME280;68663;49.122;17.544;2023-05-06T06:38:17;99277.06;;;24.20;45.07
79230;BME280;68663;49.122;17.544;2023-05-06T06:40:42;99272.78;;;24.12;45.01
79230;BME280;68663;49.122;17.544;2023-05-06T06:43:08;99282.97;;;24.06;45.26
79230;BME280;68663;49.122;17.544;2023-05-06T06:45:33;99283.13;;;23.99;45.39
79230;BME280;68663;49.122;17.544;2023-05-06T06:47:59;99286.81;;;23.96;46.21
79230;BME280;68663;49.122;17.544;2023-05-06T06:50:24;99276.72;;;23.95;46.50
79230;BME280;68663;49.122;17.544;2023-05-06T06:52:51;99277.59;;;23.92;45.91
79230;BME280;68663;49.122;17.544;2023-05-06T06:55:16;99280.06;;;23.90;45.86
79230;BME280;68663;49.122;17.544;2023-05-06T06:57:41;99273.97;;;23.91;45.52
79230;BME280;68663;49.122;17.544;2023-05-06T07:00:07;99276.72;;;23.95;45.57
79230;BME280;68663;49.122;17.544;2023-05-06T07:02:33;99279.91;;;23.97;45.51
79230;BME280;68663;49.122;17.544;2023-05-06T07:04:58;99275.59;;;24.12;45.49
79230;BME280;68663;49.122;17.544;2023-05-06T07:07:24;99285.44;;;24.04;45.27
79230;BME280;68663;49.122;17.544;2023-05-06T07:09:49;99277.75;;;24.04;45.41
79230;BME280;68663;49.122;17.544;2023-05-06T07:12:15;99278.06;;;24.10;45.31
79230;BME280;68663;49.122;17.544;2023-05-06T07:14:40;99282.41;;;24.14;45.08
79230;BME280;68663;49.122;17.544;2023-05-06T07:17:06;99285.97;;;24.19;45.09
79230;BME280;68663;49.122;17.544;2023-05-06T07:19:32;99286.75;;;24.19;44.92
79230;BME280;68663;49.122;17.544;2023-05-06T07:21:57;99295.38;;;24.12;44.99
79230;BME280;68663;49.122;17.544;2023-05-06T07:24:22;99292.56;;;24.12;45.05
79230;BME280;68663;49.122;17.544;2023-05-06T07:26:48;99295.38;;;24.12;44.97
79230;BME280;68663;49.122;17.544;2023-05-06T07:29:14;99295.75;;;24.14;45.05
79230;BME280;68663;49.122;17.544;2023-05-06T07:31:39;99297.28;;;24.19;44.91
79230;BME280;68663;49.122;17.544;2023-05-06T07:34:05;99305.69;;;24.22;44.89
79230;BME280;68663;49.122;17.544;2023-05-06T07:36:32;99309.00;;;24.17;44.73
79230;BME280;68663;49.122;17.544;2023-05-06T07:39:04;99307.91;;;24.11;45.08
79230;BME280;68663;49.122;17.544;2023-05-06T07:41:29;99308.28;;;24.13;45.10
79230;BME280;68663;49.122;17.544;2023-05-06T07:43:55;99303.84;;;24.12;44.95
79230;BME280;68663;49.122;17.544;2023-05-06T07:46:20;99309.50;;;24.12;45.25
79230;BME280;68663;49.122;17.544;2023-05-06T07:48:46;99311.09;;;24.13;45.64
79230;BME280;68663;49.122;17.544;2023-05-06T07:51:12;99312.69;;;24.14;45.93
79230;BME280;68663;49.122;17.544;2023-05-06T07:53:37;99314.28;;;24.15;45.74
79230;BME280;68663;49.122;17.544;2023-05-06T07:56:04;99322.31;;;24.17;45.95
79230;BME280;68663;49.122;17.544;2023-05-06T07:58:30;99315.72;;;24.27;45.47
79230;BME280;68663;49.122;17.544;2023-05-06T08:00:56;99320.09;;;24.31;45.54
79230;BME280;68663;49.122;17.544;2023-05-06T08:03:22;99321.41;;;24.23;45.50
79230;BME280;68663;49.122;17.544;2023-05-06T08:05:51;99318.94;;;24.25;45.68
79230;BME280;68663;49.122;17.544;2023-05-06T08:08:20;99321.31;;;24.30;45.48
79230;BME280;68663;49.122;17.544;2023-05-06T08:10:45;99321.31;;;24.30;45.72
79230;BME280;68663;49.122;17.544;2023-05-06T08:13:11;99330.97;;;24.33;45.51
79230;BME280;68663;49.122;17.544;2023-05-06T08:15:37;99332.50;;;24.37;45.10
79230;BME280;68663;49.122;17.544;2023-05-06T08:18:03;99325.75;;;24.31;45.51
79230;BME280;68663;49.122;17.544;2023-05-06T08:20:29;99326.19;;;24.26;45.48
79230;BME280;68663;49.122;17.544;2023-05-06T08:22:55;99332.25;;;24.28;45.52
79230;BME280;68663;49.122;17.544;2023-05-06T08:25:20;99323.78;;;24.28;45.72
79230;BME280;68663;49.122;17.544;2023-05-06T08:27:45;99332.25;;;24.28;45.88
79230;BME280;68663;49.122;17.544;2023-05-06T08:30:11;99333.06;;;24.29;46.22
79230;BME280;68663;49.122;17.544;2023-05-06T08:32:38;99335.09;;;24.28;46.77
79230;BME280;68663;49.122;17.544;2023-05-06T08:35:07;99336.69;;;24.29;46.88
79230;BME280;68663;49.122;17.544;2023-05-06T08:37:32;99333.34;;;24.34;46.71
79230;BME280;68663;49.122;17.544;2023-05-06T08:39:58;99340.09;;;24.40;46.69
79230;BME280;68663;49.122;17.544;2023-05-06T08:42:24;99341.84;;;24.34;46.63
79230;BME280;68663;49.122;17.544;2023-05-06T08:44:51;99347.06;;;24.36;46.74
79230;BME280;68663;49.122;17.544;2023-05-06T08:47:20;99344.09;;;24.43;46.51
79230;BME280;68663;49.122;17.544;2023-05-06T08:49:45;99345.25;;;24.45;46.10
79230;BME280;68663;49.122;17.544;2023-05-06T08:52:11;99351.69;;;24.46;46.23
79230;BME280;68663;49.122;17.544;2023-05-06T08:54:37;99342.78;;;24.48;46.29
79230;BME280;68663;49.122;17.544;2023-05-06T08:57:10;99354.16;;;24.44;46.52
79230;BME280;68663;49.122;17.544;2023-05-06T08:59:36;99357.91;;;24.37;46.65
79230;BME280;68663;49.122;17.544;2023-05-06T09:02:02;99358.28;;;24.39;46.38
79230;BME280;68663;49.122;17.544;2023-05-06T09:04:29;99350.97;;;24.42;46.34
79230;BME280;68663;49.122;17.544;2023-05-06T09:06:56;99363.13;;;24.39;46.09
79230;BME280;68663;49.122;17.544;2023-05-06T09:09:22;99360.31;;;24.39;45.81
79230;BME280;68663;49.122;17.544;2023-05-06T09:11:48;99361.53;;;24.38;45.79
79230;BME280;68663;49.122;17.544;2023-05-06T09:14:22;99365.16;;;24.38;45.66
79230;BME280;68663;49.122;17.544;2023-05-06T09:16:49;99363.50;;;24.41;45.64
79230;BME280;68663;49.122;17.544;2023-05-06T09:19:16;99364.31;;;24.41;45.71
79230;BME280;68663;49.122;17.544;2023-05-06T09:21:44;99362.94;;;24.50;45.27
79230;BME280;68663;49.122;17.544;2023-05-06T09:24:11;99356.56;;;24.45;45.39
79230;BME280;68663;49.122;17.544;2023-05-06T09:26:39;99371.19;;;24.40;45.37
79230;BME280;68663;49.122;17.544;2023-05-06T09:29:05;99368.72;;;24.42;45.35
79230;BME280;68663;49.122;17.544;2023-05-06T09:31:30;99366.75;;;24.39;45.52
79230;BME280;68663;49.122;17.544;2023-05-06T09:33:58;99376.09;;;24.36;45.75
79230;BME280;68663;49.122;17.544;2023-05-06T09:36:26;99372.84;;;24.38;46.19
79230;BME280;68663;49.122;17.544;2023-05-06T09:38:55;99372.41;;;24.39;46.23
79230;BME280;68663;49.122;17.544;2023-05-06T09:41:22;99378.78;;;24.43;45.90
79230;BME280;68663;49.122;17.544;2023-05-06T09:43:51;99386.13;;;24.41;46.34
79230;BME280;68663;49.122;17.544;2023-05-06T09:46:17;99374.44;;;24.39;46.59
79230;BME280;68663;49.122;17.544;2023-05-06T09:48:44;99390.59;;;24.38;46.42
79230;BME280;68663;49.122;17.544;2023-05-06T09:51:10;99387.03;;;24.34;46.53
79230;BME280;68663;49.122;17.544;2023-05-06T09:53:36;99385.81;;;24.35;47.42
79230;BME280;68663;49.122;17.544;2023-05-06T09:56:06;99385.44;;;24.33;47.26
79230;BME280;68663;49.122;17.544;2023-05-06T09:58:33;99382.97;;;24.35;47.80
79230;BME280;68663;49.122;17.544;2023-05-06T10:00:59;99376.47;;;24.38;47.70
79230;BME280;68663;49.122;17.544;2023-05-06T10:03:25;99372.03;;;24.37;47.27
79230;BME280;68663;49.122;17.544;2023-05-06T10:05:55;99381.63;;;24.43;47.59
79230;BME280;68663;49.122;17.544;2023-05-06T10:08:25;99375.84;;;24.51;47.60
79230;BME280;68663;49.122;17.544;2023-05-06T10:10:51;99371.91;;;24.44;48.23
79230;BME280;68663;49.122;17.544;2023-05-06T10:13:19;99371.56;;;24.42;48.37
79230;BME280;68663;49.122;17.544;2023-05-06T10:15:46;99364.97;;;24.49;48.19
79230;BME280;68663;49.122;17.544;2023-05-06T10:18:14;99368.59;;;24.50;47.80
79230;BME280;68663;49.122;17.544;2023-05-06T10:20:41;99371.47;;;24.46;47.97
79230;BME280;68663;49.122;17.544;2023-05-06T10:23:23;99366.25;;;24.44;47.75
79230;BME280;68663;49.122;17.544;2023-05-06T10:25:53;99369.81;;;24.49;48.30
79230;BME280;68663;49.122;17.544;2023-05-06T10:28:20;99371.41;;;24.50;50.73
79230;BME280;68663;49.122;17.544;2023-05-06T10:30:47;99369.19;;;24.61;50.64
79230;BME280;68663;49.122;17.544;2023-05-06T10:33:14;99375.50;;;24.68;52.04
79230;BME280;68663;49.122;17.544;2023-05-06T10:35:42;99373.81;;;24.71;57.30
79230;BME280;68663;49.122;17.544;2023-05-06T10:38:22;99363.59;;;24.77;55.62
79230;BME280;68663;49.122;17.544;2023-05-06T10:40:49;99367.50;;;24.83;53.92
79230;BME280;68663;49.122;17.544;2023-05-06T10:46:11;99360.41;;;24.95;54.15
79230;BME280;68663;49.122;17.544;2023-05-06T10:48:39;99351.91;;;24.95;54.75
79230;BME280;68663;49.122;17.544;2023-05-06T10:51:24;99357.44;;;25.02;54.68
79230;BME280;68663;49.122;17.544;2023-05-06T10:54:09;99347.38;;;25.01;55.92
79230;BME280;68663;49.122;17.544;2023-05-06T10:56:40;99356.72;;;24.98;54.72
79230;BME280;68663;49.122;17.544;2023-05-06T10:59:26;99349.03;;;24.98;54.58
79230;BME280;68663;49.122;17.544;2023-05-06T11:02:07;99342.50;;;25.01;54.58
79230;BME280;68663;49.122;17.544;2023-05-06T11:04:33;99343.16;;;25.09;53.64
79230;BME280;68663;49.122;17.544;2023-05-06T11:07:15;99350.84;;;25.08;52.91
79230;BME280;68663;49.122;17.544;2023-05-06T11:09:58;99353.69;;;25.08;52.65
79230;BME280;68663;49.122;17.544;2023-05-06T11:12:44;99346.41;;;25.07;51.92
79230;BME280;68663;49.122;17.544;2023-05-06T11:15:41;99354.56;;;25.05;51.56
79230;BME280;68663;49.122;17.544;2023-05-06T11:26:06;99352.00;;;24.91;49.65
79230;BME280;68663;49.122;17.544;2023-05-06T11:28:32;99350.41;;;24.90;49.84
79230;BME280;68663;49.122;17.544;2023-05-06T11:30:59;99351.63;;;24.89;49.53
79230;BME280;68663;49.122;17.544;2023-05-06T11:33:30;99346.84;;;24.86;49.25
79230;BME280;68663;49.122;17.544;2023-05-06T11:35:56;99346.13;;;24.82;49.15
79230;BME280;68663;49.122;17.544;2023-05-06T11:38:21;99351.06;;;24.78;49.33
79230;BME280;68663;49.122;17.544;2023-05-06T11:40:47;99343.44;;;24.75;49.43
79230;BME280;68663;49.122;17.544;2023-05-06T11:43:14;99341.41;;;24.75;49.58
79230;BME280;68663;49.122;17.544;2023-05-06T11:45:48;99353.16;;;24.74;49.91
79230;BME280;68663;49.122;17.544;2023-05-06T11:48:16;99346.34;;;24.71;49.75
79230;BME280;68663;49.122;17.544;2023-05-06T11:50:46;99345.56;;;24.71;49.94
79230;BME280;68663;49.122;17.544;2023-05-06T11:53:17;99332.28;;;24.68;49.98
79230;BME280;68663;49.122;17.544;2023-05-06T11:55:44;99339.16;;;24.67;49.90
79230;BME280;68663;49.122;17.544;2023-05-06T11:58:28;99327.88;;;24.67;49.62
79230;BME280;68663;49.122;17.544;2023-05-06T12:00:56;99335.91;;;24.68;49.55
79230;BME280;68663;49.122;17.544;2023-05-06T12:03:23;99335.47;;;24.70;49.71
79230;BME280;68663;49.122;17.544;2023-05-06T12:05:49;99331.06;;;24.69;49.18
79230;BME280;68663;49.122;17.544;2023-05-06T12:08:16;99322.94;;;24.71;49.73
79230;BME280;68663;49.122;17.544;2023-05-06T12:10:44;99320.09;;;24.71;49.20
79230;BME280;68663;49.122;17.544;2023-05-06T12:13:10;99318.50;;;24.70;49.58
79230;BME280;68663;49.122;17.544;2023-05-06T12:15:36;99321.34;;;24.70;49.10
79230;BME280;68663;49.122;17.544;2023-05-06T12:18:03;99310.09;;;24.66;48.55
79230;BME280;68663;49.122;17.544;2023-05-06T12:20:29;99310.09;;;24.66;47.88
79230;BME280;68663;49.122;17.544;2023-05-06T12:23:11;99308.50;;;24.65;47.07
79230;BME280;68663;49.122;17.544;2023-05-06T12:25:38;99310.19;;;24.63;46.48
79230;BME280;68663;49.122;17.544;2023-05-06T12:28:19;99307.00;;;24.61;46.26
79230;BME280;68663;49.122;17.544;2023-05-06T12:30:46;99297.72;;;24.60;46.60
79230;BME280;68663;49.122;17.544;2023-05-06T12:33:12;99302.63;;;24.56;45.85
79230;BME280;68663;49.122;17.544;2023-05-06T12:35:38;99304.75;;;24.52;45.23
79230;BME280;68663;49.122;17.544;2023-05-06T12:38:12;99295.47;;;24.52;45.80
79230;BME280;68663;49.122;17.544;2023-05-06T12:40:39;99291.91;;;24.48;45.37
79230;BME280;68663;49.122;17.544;2023-05-06T12:43:05;99285.03;;;24.49;45.93
79230;BME280;68663;49.122;17.544;2023-05-06T12:45:31;99290.31;;;24.47;46.02
79230;BME280;68663;49.122;17.544;2023-05-06T12:47:57;99299.22;;;24.45;45.80
79230;BME280;68663;49.122;17.544;2023-05-06T12:50:49;99282.72;;;24.43;45.62
79230;BME280;68663;49.122;17.544;2023-05-06T12:53:30;99271.56;;;24.36;45.35
79230;BME280;68663;49.122;17.544;2023-05-06T12:55:55;99272.78;;;24.35;45.22
79230;BME280;68663;49.122;17.544;2023-05-06T12:58:21;99269.59;;;24.33;45.34
79230;BME280;68663;49.122;17.544;2023-05-06T13:00:46;99269.16;;;24.35;45.13
79230;BME280;68663;49.122;17.544;2023-05-06T13:03:12;99264.75;;;24.34;45.49